createdAt,value
2018-04-23T14:03:32.731Z,13.10
2018-04-23T14:05:59.169Z,13.66
2018-04-23T14:08:25.431Z,13.31
2018-04-23T14:10:51.746Z,13.04
2018-04-23T14:13:18.008Z,12.91
2018-04-23T14:15:44.435Z,12.81
2018-04-23T14:18:10.739Z,12.23
2018-04-23T14:20:37.025Z,11.80
2018-04-23T14:23:03.300Z,12.86
2018-04-23T14:25:29.662Z,12.44
2018-04-23T14:27:55.938Z,12.50
2018-04-23T14:30:22.232Z,12.10
2018-04-23T14:32:48.645Z,12.29
2018-04-23T14:35:14.991Z,12.66
2018-04-23T14:37:41.320Z,12.86
2018-04-23T14:40:07.644Z,11.99
2018-04-23T14:42:33.939Z,11.09
2018-04-23T14:45:00.240Z,11.08
2018-04-23T14:47:26.674Z,11.64
2018-04-23T14:49:52.994Z,11.81
2018-04-23T14:52:19.301Z,12.09
2018-04-23T14:54:45.651Z,11.37
2018-04-23T14:57:11.927Z,11.97
2018-04-23T14:59:38.217Z,12.44
2018-04-23T15:02:04.641Z,11.94
2018-04-23T15:04:31.360Z,12.73
2018-04-23T15:06:57.657Z,13.80
2018-04-23T15:09:24.020Z,14.73
2018-04-23T15:11:52.184Z,15.13
2018-04-23T15:14:18.452Z,15.67
2018-04-23T15:16:44.783Z,15.70
2018-04-23T15:19:11.082Z,15.66
2018-04-23T15:21:37.354Z,16.94
2018-04-23T15:24:03.762Z,16.38
2018-04-23T15:26:30.023Z,16.56
2018-04-23T15:28:56.384Z,16.00
2018-04-23T15:31:22.660Z,16.18
2018-04-23T15:33:48.936Z,16.72
2018-04-23T15:36:15.324Z,17.14
2018-04-23T15:38:41.611Z,16.62
2018-04-23T15:41:07.889Z,16.35
2018-04-23T15:43:37.346Z,16.72
2018-04-23T15:46:03.625Z,16.37
2018-04-23T15:48:29.895Z,16.91
2018-04-23T15:50:56.212Z,16.64
2018-04-23T15:53:22.565Z,16.09
2018-04-23T15:55:49.002Z,15.63
2018-04-23T15:58:15.260Z,15.99
2018-04-23T16:00:41.531Z,16.48
2018-04-23T16:03:07.850Z,17.30
2018-04-23T16:05:34.355Z,17.02
2018-04-23T16:08:00.630Z,17.36
2018-04-23T16:10:26.936Z,17.02
2018-04-23T16:12:53.249Z,16.51
2018-04-23T16:15:19.560Z,17.11
2018-04-23T16:17:46.417Z,17.01
2018-04-23T16:20:12.686Z,16.96
2018-04-23T16:22:38.975Z,16.90
2018-04-23T16:25:06.465Z,17.08
2018-04-23T16:27:32.726Z,17.83
2018-04-23T16:29:59.749Z,18.27
2018-04-23T16:32:25.999Z,18.59
2018-04-23T16:34:52.267Z,19.17
2018-04-23T16:37:18.682Z,19.84
2018-04-23T16:39:44.974Z,18.45
2018-04-23T16:42:11.344Z,18.25
2018-04-23T16:44:39.417Z,18.26
2018-04-23T16:47:03.944Z,19.44
2018-04-23T16:49:30.338Z,19.01
2018-04-23T16:51:56.762Z,19.47
2018-04-23T16:54:23.155Z,20.67
2018-04-23T16:56:49.805Z,19.56
2018-04-23T16:59:16.485Z,22.39
2018-04-23T17:01:42.753Z,24.12
2018-04-23T17:04:09.018Z,25.92
2018-04-23T17:06:35.330Z,25.15
2018-04-23T17:09:01.622Z,25.57
2018-04-23T17:11:28.748Z,26.22
2018-04-23T17:13:55.090Z,27.76
2018-04-23T17:16:21.364Z,28.91
2018-04-23T17:18:47.749Z,29.54
2018-04-23T17:21:14.037Z,29.44
2018-04-23T17:23:40.735Z,30.04
2018-04-23T17:26:07.135Z,31.13
2018-04-23T17:28:33.911Z,31.44
2018-04-23T17:31:00.335Z,32.32
2018-04-23T17:33:26.780Z,32.46
2018-04-23T17:35:54.011Z,32.89
2018-04-23T17:38:20.343Z,33.53
2018-04-23T17:40:47.222Z,33.52
2018-04-23T17:43:14.554Z,33.85
2018-04-23T17:45:40.834Z,34.25
2018-04-23T17:48:07.182Z,33.76
2018-04-23T17:50:33.570Z,34.10
2018-04-23T17:52:59.852Z,36.36
2018-04-23T17:55:26.231Z,35.69
2018-04-23T17:57:52.503Z,36.80
2018-04-23T18:00:18.775Z,36.35
2018-04-23T18:02:45.151Z,37.51
2018-04-23T18:05:11.451Z,36.20
2018-04-23T18:07:37.830Z,36.70
2018-04-23T18:10:04.118Z,35.92
2018-04-23T18:12:30.431Z,36.21
2018-04-23T18:14:56.870Z,36.46
2018-04-23T18:17:23.256Z,36.80
2018-04-23T18:19:49.530Z,37.81
2018-04-23T18:22:18.669Z,39.01
2018-04-23T18:24:44.960Z,38.50
2018-04-23T18:27:11.301Z,38.15
2018-04-23T18:29:37.629Z,38.06
2018-04-23T18:32:03.978Z,38.31
2018-04-23T18:34:30.392Z,39.20
2018-04-23T18:36:56.851Z,38.55
2018-04-23T18:39:23.143Z,38.28
2018-04-23T18:41:49.468Z,38.65
2018-04-23T18:44:15.854Z,38.38
2018-04-23T18:46:42.152Z,38.90
2018-04-23T18:49:08.488Z,39.08
2018-04-23T18:51:34.770Z,39.04
2018-04-23T18:54:01.115Z,37.08
2018-04-23T18:56:27.484Z,37.79
2018-04-23T18:58:53.983Z,39.78
2018-04-23T19:01:20.259Z,40.06
2018-04-23T19:03:46.725Z,38.74
2018-04-23T19:06:13.056Z,39.42
2018-04-23T19:08:39.338Z,42.42
2018-04-23T19:11:05.740Z,41.92
2018-04-23T19:13:32.037Z,42.85
2018-04-23T19:15:58.433Z,43.16
2018-04-23T19:18:25.070Z,42.31
2018-04-23T19:20:51.529Z,42.72
2018-04-23T19:23:17.875Z,42.62
2018-04-23T19:25:44.174Z,42.35
2018-04-23T19:28:11.613Z,43.63
2018-04-23T19:30:37.912Z,43.90
2018-04-23T19:33:04.217Z,43.96
2018-04-23T19:35:30.809Z,44.29
2018-04-23T19:37:57.219Z,44.90
2018-04-23T19:40:23.488Z,44.95
2018-04-23T19:42:49.877Z,46.47
2018-04-23T19:45:16.351Z,47.40
2018-04-23T19:47:42.689Z,48.18
2018-04-23T19:50:09.016Z,48.18
2018-04-23T19:52:35.440Z,48.22
2018-04-23T19:55:01.753Z,49.06
2018-04-23T19:57:29.194Z,48.98
2018-04-23T19:59:55.905Z,48.60
2018-04-23T20:02:22.361Z,48.13
2018-04-23T20:04:48.732Z,49.26
2018-04-23T20:07:30.133Z,49.83
2018-04-23T20:09:56.504Z,49.84
2018-04-23T20:12:22.835Z,49.63
2018-04-23T20:14:49.142Z,49.46
2018-04-23T20:17:15.547Z,49.85
2018-04-23T20:19:41.869Z,50.22
2018-04-23T20:22:08.148Z,52.57
2018-04-23T20:24:34.428Z,53.70
2018-04-23T20:27:00.952Z,53.57
2018-04-23T20:29:28.140Z,55.05
2018-04-23T20:31:54.442Z,55.11
2018-04-23T20:34:20.804Z,53.45
2018-04-23T20:36:47.105Z,53.90
2018-04-23T20:39:13.381Z,53.48
2018-04-23T20:41:39.767Z,54.19
2018-04-23T20:44:06.067Z,55.17
2018-04-23T20:46:32.627Z,55.16
2018-04-23T20:48:58.927Z,55.00
2018-04-23T20:51:25.290Z,54.13
2018-04-23T20:53:51.577Z,53.89
2018-04-23T20:56:20.999Z,55.13
2018-04-23T20:58:47.702Z,55.63
2018-04-23T21:01:14.039Z,56.25
2018-04-23T21:03:40.348Z,56.13
2018-04-23T21:06:06.673Z,55.63
2018-04-23T21:08:32.996Z,55.10
2018-04-23T21:10:59.303Z,57.15
2018-04-23T21:13:25.682Z,58.39
2018-04-23T21:15:52.800Z,59.06
2018-04-23T21:18:19.070Z,60.15
2018-04-23T21:20:45.381Z,60.04
2018-04-23T21:23:11.850Z,59.80
2018-04-23T21:25:38.155Z,59.75
2018-04-23T21:28:04.513Z,58.91
2018-04-23T21:30:30.801Z,58.82
2018-04-23T21:32:57.102Z,58.49
2018-04-23T21:35:23.654Z,59.20
2018-04-23T21:37:49.924Z,60.32
2018-04-23T21:40:16.215Z,62.60
2018-04-23T21:42:42.722Z,63.46
2018-04-23T21:45:08.989Z,62.91
2018-04-23T21:47:35.285Z,62.21
2018-04-23T21:50:01.564Z,62.53
2018-04-23T21:52:27.845Z,62.77
2018-04-23T21:54:57.403Z,63.17
2018-04-23T21:57:24.462Z,63.38
2018-04-23T21:59:50.733Z,63.85
2018-04-23T22:02:17.396Z,64.62
2018-04-23T22:04:43.658Z,64.44
2018-04-23T22:07:09.986Z,63.74
2018-04-23T22:09:36.251Z,63.88
2018-04-23T22:12:02.532Z,65.93
2018-04-23T22:14:29.151Z,66.68
2018-04-23T22:16:55.468Z,66.77
2018-04-23T22:19:21.738Z,66.85
2018-04-23T22:21:48.175Z,66.42
2018-04-23T22:24:14.451Z,66.40
2018-04-23T22:26:40.776Z,65.64
2018-04-23T22:29:07.055Z,65.06
2018-04-23T22:31:33.677Z,64.18
2018-04-23T22:33:59.938Z,64.16
2018-04-23T22:36:26.215Z,64.32
2018-04-23T22:38:52.540Z,64.20
2018-04-23T22:41:18.821Z,66.63
2018-04-23T22:43:45.096Z,67.94
2018-04-23T22:46:11.438Z,68.61
2018-04-23T22:48:37.731Z,68.09
2018-04-23T22:51:04.023Z,67.24
2018-04-23T22:53:30.966Z,66.30
2018-04-23T22:55:57.233Z,65.52
2018-04-23T22:58:23.617Z,64.95
2018-04-23T23:00:49.975Z,64.21
2018-04-23T23:03:16.408Z,66.49
2018-04-23T23:05:42.678Z,68.81
2018-04-23T23:08:08.984Z,69.96
2018-04-23T23:10:35.241Z,68.97
2018-04-23T23:13:01.553Z,68.80
2018-04-23T23:15:28.250Z,67.92
2018-04-23T23:17:54.519Z,68.17
2018-04-23T23:20:20.781Z,69.03
2018-04-23T23:22:47.081Z,68.37
2018-04-23T23:25:13.354Z,68.69
2018-04-23T23:27:39.613Z,68.31
2018-04-23T23:30:05.940Z,68.24
2018-04-23T23:32:32.223Z,69.59
2018-04-23T23:34:58.492Z,69.34
2018-04-23T23:37:25.228Z,68.48
2018-04-23T23:39:51.568Z,68.71
2018-04-23T23:42:17.861Z,68.59
2018-04-23T23:44:44.190Z,67.87
2018-04-23T23:47:10.538Z,67.97
2018-04-23T23:49:36.799Z,70.50
2018-04-23T23:52:03.051Z,72.79
2018-04-23T23:54:29.761Z,72.49
2018-04-23T23:56:56.292Z,71.31
2018-04-23T23:59:22.723Z,70.27
